createdAt,value
2018-06-12T00:01:24.102Z,5.30
2018-06-12T00:03:50.895Z,5.42
2018-06-12T00:06:18.233Z,5.35
2018-06-12T00:08:45.036Z,4.87
2018-06-12T00:11:12.103Z,5.55
2018-06-12T00:13:39.039Z,5.17
2018-06-12T00:16:05.831Z,6.08
2018-06-12T00:18:33.495Z,5.00
2018-06-12T00:21:00.798Z,5.12
2018-06-12T00:23:27.756Z,5.55
2018-06-12T00:25:55.159Z,5.08
2018-06-12T00:28:22.028Z,5.77
2018-06-12T00:30:50.425Z,5.70
2018-06-12T00:33:17.292Z,5.22
2018-06-12T00:35:44.753Z,6.25
2018-06-12T00:38:11.528Z,5.27
2018-06-12T00:40:38.410Z,6.10
2018-06-12T00:43:05.210Z,5.57
2018-06-12T00:45:31.939Z,5.97
2018-06-12T00:47:58.921Z,6.17
2018-06-12T00:50:25.755Z,5.55
2018-06-12T00:52:53.064Z,5.83
2018-06-12T00:55:19.770Z,5.33
2018-06-12T00:57:46.506Z,5.28
2018-06-12T01:00:13.812Z,5.50
2018-06-12T01:02:41.164Z,5.60
2018-06-12T01:05:07.864Z,5.63
2018-06-12T01:07:34.590Z,6.62
2018-06-12T01:10:01.372Z,5.97
2018-06-12T01:12:28.080Z,5.85
2018-06-12T01:14:54.770Z,5.53
2018-06-12T01:17:21.450Z,5.70
2018-06-12T01:19:48.267Z,5.23
2018-06-12T01:22:15.048Z,5.80
2018-06-12T01:24:41.756Z,5.23
2018-06-12T01:27:08.836Z,5.40
2018-06-12T01:29:36.320Z,5.17
2018-06-12T01:32:03.181Z,5.47
2018-06-12T01:34:30.004Z,5.62
2018-06-12T01:36:56.882Z,5.90
2018-06-12T01:39:23.853Z,6.77
2018-06-12T01:41:50.928Z,5.58
2018-06-12T01:44:17.761Z,5.58
2018-06-12T01:46:44.662Z,6.47
2018-06-12T01:49:11.603Z,5.60
2018-06-12T01:51:38.657Z,6.37
2018-06-12T01:54:06.220Z,5.83
2018-06-12T01:56:33.001Z,6.23
2018-06-12T01:58:59.751Z,5.97
2018-06-12T02:01:26.443Z,6.53
2018-06-12T02:03:53.199Z,6.03
2018-06-12T02:06:20.145Z,6.37
2018-06-12T02:09:01.628Z,6.67
2018-06-12T02:11:28.368Z,5.97
2018-06-12T02:13:55.172Z,6.10
2018-06-12T02:16:22.092Z,5.97
2018-06-12T02:18:48.900Z,7.07
2018-06-12T02:21:15.746Z,6.05
2018-06-12T02:23:42.668Z,6.03
2018-06-12T02:26:09.633Z,6.70
2018-06-12T02:28:37.093Z,6.67
2018-06-12T02:31:03.918Z,6.58
2018-06-12T02:33:31.448Z,5.93
2018-06-12T02:35:58.240Z,6.50
2018-06-12T02:38:25.009Z,6.43
2018-06-12T02:40:51.804Z,6.70
2018-06-12T02:43:19.353Z,6.97
2018-06-12T02:45:46.209Z,7.00
2018-06-12T02:48:13.359Z,7.03
2018-06-12T02:50:40.846Z,6.67
2018-06-12T02:53:07.536Z,6.60
2018-06-12T02:55:34.453Z,6.33
2018-06-12T02:58:01.479Z,6.53
2018-06-12T03:00:28.454Z,6.60
2018-06-12T03:02:55.240Z,6.63
2018-06-12T03:05:21.998Z,6.47
2018-06-12T03:07:49.548Z,6.67
2018-06-12T03:10:17.352Z,6.40
2018-06-12T03:12:44.296Z,6.43
2018-06-12T03:15:11.078Z,6.23
2018-06-12T03:17:38.166Z,6.00
2018-06-12T03:20:05.593Z,6.87
2018-06-12T03:22:32.443Z,7.03
2018-06-12T03:24:59.198Z,7.17
2018-06-12T03:27:26.231Z,6.93
2018-06-12T03:29:53.114Z,6.70
2018-06-12T03:32:21.093Z,6.30
2018-06-12T03:34:48.042Z,6.63
2018-06-12T03:37:15.397Z,6.53
2018-06-12T03:39:42.391Z,7.20
2018-06-12T03:42:09.144Z,7.17
2018-06-12T03:44:35.880Z,6.90
2018-06-12T03:47:02.600Z,6.40
2018-06-12T03:49:29.554Z,6.70
2018-06-12T03:51:57.479Z,6.63
2018-06-12T03:54:24.479Z,7.30
2018-06-12T03:56:51.239Z,7.03
2018-06-12T03:59:18.004Z,7.23
2018-06-12T04:01:44.769Z,7.30
2018-06-12T04:04:11.468Z,6.63
2018-06-12T04:06:38.951Z,7.07
2018-06-12T04:09:05.812Z,7.10
2018-06-12T04:11:32.658Z,6.93
2018-06-12T04:13:59.601Z,7.37
2018-06-12T04:16:26.613Z,7.03
2018-06-12T04:18:53.510Z,7.30
2018-06-12T04:21:20.487Z,7.17
2018-06-12T04:23:47.308Z,7.27
2018-06-12T04:26:14.122Z,7.30
2018-06-12T04:28:40.938Z,6.70
2018-06-12T04:31:07.784Z,6.67
2018-06-12T04:33:34.560Z,7.23
2018-06-12T04:36:01.518Z,6.73
2018-06-12T04:38:31.947Z,6.17
2018-06-12T04:41:01.936Z,7.50
2018-06-12T04:43:28.803Z,7.07
2018-06-12T04:45:55.666Z,7.20
2018-06-12T04:48:22.986Z,7.20
2018-06-12T04:50:50.080Z,6.93
2018-06-12T04:53:16.894Z,6.87
2018-06-12T04:55:45.286Z,6.73
2018-06-12T04:58:12.143Z,7.40
2018-06-12T05:00:39.068Z,7.20
2018-06-12T05:03:06.209Z,7.07
2018-06-12T05:05:33.546Z,6.97
2018-06-12T05:08:00.848Z,6.17
2018-06-12T05:10:27.873Z,6.47
2018-06-12T05:12:55.188Z,6.93
2018-06-12T05:15:22.538Z,6.57
2018-06-12T05:17:49.330Z,7.13
2018-06-12T05:20:16.122Z,6.73
2018-06-12T05:22:42.864Z,6.50
2018-06-12T05:25:09.657Z,7.53
2018-06-12T05:27:36.450Z,6.73
2018-06-12T05:30:03.328Z,5.83
2018-06-12T05:32:30.203Z,7.07
2018-06-12T05:34:57.351Z,6.47
2018-06-12T05:39:58.865Z,6.73
2018-06-12T05:42:25.754Z,6.17
2018-06-12T05:44:52.585Z,6.50
2018-06-12T05:47:19.364Z,6.70
2018-06-12T05:49:46.153Z,6.17
2018-06-12T05:52:12.950Z,6.77
2018-06-12T05:54:39.779Z,5.77
2018-06-12T05:57:06.512Z,6.53
2018-06-12T05:59:33.321Z,6.60
2018-06-12T06:02:00.133Z,6.07
2018-06-12T06:04:26.917Z,6.30
2018-06-12T06:06:53.653Z,6.27
2018-06-12T06:09:20.489Z,6.83
2018-06-12T06:11:47.254Z,5.83
2018-06-12T06:14:14.053Z,6.53
2018-06-12T06:16:40.869Z,6.80
2018-06-12T06:19:07.665Z,6.30
2018-06-12T06:21:34.527Z,6.10
2018-06-12T06:24:01.305Z,6.20
2018-06-12T06:26:28.177Z,6.07
2018-06-12T06:28:55.082Z,6.53
2018-06-12T06:31:21.911Z,6.20
2018-06-12T06:33:48.792Z,6.63
2018-06-12T06:36:15.520Z,6.40
2018-06-12T06:38:42.321Z,6.20
2018-06-12T06:41:10.083Z,5.67
2018-06-12T06:43:36.853Z,6.53
2018-06-12T06:46:03.636Z,5.80
2018-06-12T06:48:30.374Z,6.10
2018-06-12T06:50:57.176Z,6.20
2018-06-12T06:53:24.576Z,6.00
2018-06-12T06:55:51.414Z,6.37
2018-06-12T06:58:18.308Z,6.10
2018-06-12T07:00:45.267Z,6.07
2018-06-12T07:03:12.216Z,5.70
2018-06-12T07:05:39.027Z,6.00
2018-06-12T07:08:05.844Z,5.58
2018-06-12T07:10:32.643Z,5.33
2018-06-12T07:12:59.407Z,6.13
2018-06-12T07:15:26.323Z,6.37
2018-06-12T07:17:53.077Z,5.37
2018-06-12T07:20:19.845Z,5.27
2018-06-12T07:22:46.713Z,5.73
2018-06-12T07:25:13.563Z,5.47
2018-06-12T07:27:40.369Z,5.43
2018-06-12T07:30:16.282Z,5.60
2018-06-12T07:32:45.057Z,5.40
2018-06-12T07:35:11.917Z,5.17
2018-06-12T07:37:39.194Z,6.17
2018-06-12T07:40:05.930Z,5.53
2018-06-12T07:42:32.745Z,5.30
2018-06-12T07:45:11.637Z,5.23
2018-06-12T07:47:40.529Z,5.77
2018-06-12T07:52:58.214Z,5.57
2018-06-12T07:55:37.899Z,4.97
2018-06-12T07:58:08.535Z,5.30
2018-06-12T08:00:35.342Z,5.47
2018-06-12T08:03:02.297Z,4.97
2018-06-12T08:05:36.353Z,5.12
2018-06-12T08:08:05.286Z,5.67
2018-06-12T08:10:36.743Z,4.67
2018-06-12T08:13:04.412Z,5.33
2018-06-12T08:15:31.288Z,5.60
2018-06-12T08:17:58.126Z,4.67
2018-06-12T08:20:24.975Z,5.33
2018-06-12T08:22:51.909Z,5.27
2018-06-12T08:25:18.845Z,5.57
2018-06-12T08:27:45.821Z,5.10
2018-06-12T08:30:12.622Z,5.40
2018-06-12T08:32:39.494Z,5.37
2018-06-12T08:35:06.409Z,5.30
2018-06-12T08:37:33.237Z,4.90
2018-06-12T08:40:00.138Z,5.00
2018-06-12T08:42:27.205Z,4.70
2018-06-12T08:44:54.576Z,5.87
2018-06-12T08:47:21.337Z,5.35
2018-06-12T08:49:48.306Z,5.13
2018-06-12T08:52:15.153Z,5.20
2018-06-12T08:54:42.453Z,4.90
2018-06-12T08:57:09.285Z,4.80
2018-06-12T08:59:36.036Z,4.72
2018-06-12T09:02:02.945Z,5.05
2018-06-12T09:04:30.457Z,5.20
2018-06-12T09:06:58.425Z,5.73
2018-06-12T09:09:25.237Z,5.60
2018-06-12T09:11:52.183Z,5.95
2018-06-12T09:14:19.187Z,6.22
2018-06-12T09:16:47.264Z,6.50
2018-06-12T09:19:15.348Z,6.10
2018-06-12T09:21:42.314Z,5.70
2018-06-12T09:24:09.139Z,7.20
2018-06-12T09:26:35.980Z,6.08
2018-06-12T09:29:02.770Z,6.15
2018-06-12T09:31:29.755Z,6.35
2018-06-12T09:33:56.562Z,6.25
2018-06-12T09:36:28.904Z,6.03
2018-06-12T09:38:56.368Z,6.47
2018-06-12T09:41:23.331Z,6.40
2018-06-12T09:43:50.164Z,6.00
2018-06-12T09:46:17.106Z,6.33
2018-06-12T09:48:44.070Z,6.70
2018-06-12T09:51:10.942Z,6.33
2018-06-12T09:53:37.924Z,5.53
2018-06-12T09:56:04.721Z,6.13
2018-06-12T09:58:31.623Z,6.37
2018-06-12T10:01:03.990Z,5.90
2018-06-12T10:03:30.819Z,5.40
2018-06-12T10:05:58.451Z,6.27
2018-06-12T10:08:26.621Z,6.22
2018-06-12T10:10:54.415Z,5.15
2018-06-12T10:13:21.938Z,6.47
2018-06-12T10:15:48.823Z,6.05
2018-06-12T10:18:15.736Z,6.10
2018-06-12T10:20:42.528Z,5.92
2018-06-12T10:23:10.225Z,6.03
2018-06-12T10:25:38.371Z,6.25
2018-06-12T10:28:05.490Z,6.00
2018-06-12T10:30:32.955Z,5.93
2018-06-12T10:33:00.798Z,5.73
2018-06-12T10:35:28.251Z,5.90
2018-06-12T10:37:55.002Z,6.28
2018-06-12T10:40:22.096Z,5.97
2018-06-12T10:42:48.867Z,5.55
2018-06-12T10:45:15.609Z,5.40
2018-06-12T10:47:43.311Z,5.78
2018-06-12T10:50:10.147Z,6.17
2018-06-12T10:52:37.233Z,5.87
2018-06-12T10:55:04.808Z,6.75
2018-06-12T10:57:31.598Z,6.07
2018-06-12T10:59:59.025Z,5.97
2018-06-12T11:02:25.775Z,6.28
2018-06-12T11:04:53.394Z,7.20
2018-06-12T11:07:20.146Z,6.20
2018-06-12T11:09:47.557Z,5.62
2018-06-12T11:12:14.299Z,6.17
2018-06-12T11:14:41.291Z,6.62
2018-06-12T11:17:09.562Z,7.15
2018-06-12T11:19:37.070Z,7.37
2018-06-12T11:22:07.509Z,8.35
2018-06-12T11:24:34.324Z,9.18
2018-06-12T11:27:01.067Z,9.70
2018-06-12T11:29:27.821Z,9.80
2018-06-12T11:31:55.262Z,8.77
2018-06-12T11:34:22.297Z,8.23
2018-06-12T11:36:49.015Z,8.85
2018-06-12T11:39:15.769Z,7.97
2018-06-12T11:41:43.299Z,6.83
2018-06-12T11:44:10.021Z,6.97
2018-06-12T11:46:36.719Z,7.40
2018-06-12T11:49:03.443Z,7.83
2018-06-12T11:51:31.159Z,9.18
2018-06-12T11:53:57.942Z,9.00
2018-06-12T11:56:25.275Z,10.03
2018-06-12T11:58:52.151Z,10.50
2018-06-12T12:01:19.648Z,10.23
2018-06-12T12:03:46.474Z,10.60
2018-06-12T12:06:13.704Z,11.67
2018-06-12T12:08:40.688Z,10.78
2018-06-12T12:11:07.503Z,9.58
2018-06-12T12:13:34.368Z,9.73
2018-06-12T12:16:01.165Z,8.67
2018-06-12T12:18:27.856Z,8.75
2018-06-12T12:20:54.526Z,8.75
2018-06-12T12:23:21.278Z,7.53
2018-06-12T12:25:48.094Z,7.10
2018-06-12T12:28:15.772Z,7.40
2018-06-12T12:30:42.580Z,6.90
2018-06-12T12:33:09.292Z,6.25
2018-06-12T12:35:36.030Z,6.67
2018-06-12T12:38:02.737Z,5.93
2018-06-12T12:40:29.769Z,6.80
2018-06-12T12:42:56.511Z,7.55
2018-06-12T12:45:23.348Z,7.00
2018-06-12T12:47:50.063Z,7.20
2018-06-12T12:50:17.758Z,7.07
2018-06-12T12:52:46.100Z,6.78
2018-06-12T12:55:12.876Z,7.33
2018-06-12T12:57:40.572Z,6.87
2018-06-12T13:00:07.600Z,7.10
2018-06-12T13:02:34.453Z,5.97
2018-06-12T13:05:01.339Z,5.97
2018-06-12T13:07:28.191Z,5.28
2018-06-12T13:09:55.455Z,5.20
2018-06-12T13:12:22.745Z,5.15
2018-06-12T13:14:50.175Z,4.95
2018-06-12T13:17:17.986Z,4.83
2018-06-12T13:19:44.990Z,5.20
2018-06-12T13:22:11.747Z,5.30
2018-06-12T13:24:38.468Z,5.08
2018-06-12T13:27:06.153Z,5.87
2018-06-12T13:29:32.918Z,4.85
2018-06-12T13:32:00.279Z,5.57
2018-06-12T13:34:27.020Z,6.00
2018-06-12T13:36:53.742Z,5.58
2018-06-12T13:39:20.438Z,4.83
2018-06-12T13:41:47.442Z,5.70
2018-06-12T13:44:14.783Z,5.67
2018-06-12T13:46:42.515Z,5.83
2018-06-12T13:49:10.524Z,5.00
2018-06-12T13:51:37.823Z,5.47
2018-06-12T13:56:42.265Z,6.07
2018-06-12T13:59:09.779Z,5.50
2018-06-12T14:01:37.791Z,5.57
2018-06-12T14:04:04.501Z,5.27
2018-06-12T14:06:31.437Z,5.40
2018-06-12T14:08:58.489Z,5.15
2018-06-12T14:11:25.316Z,5.95
2018-06-12T14:13:52.001Z,5.55
2018-06-12T14:16:19.025Z,5.30
2018-06-12T14:18:46.769Z,4.97
2018-06-12T14:21:13.636Z,5.10
2018-06-12T14:23:40.718Z,5.50
2018-06-12T14:26:07.734Z,5.80
2018-06-12T14:28:34.540Z,5.47
2018-06-12T14:31:01.974Z,5.63
2018-06-12T14:33:29.396Z,5.23
2018-06-12T14:35:56.338Z,4.93
2018-06-12T14:38:23.936Z,4.60
2018-06-12T14:40:50.790Z,4.60
2018-06-12T14:43:17.562Z,4.25
2018-06-12T14:45:44.537Z,4.90
2018-06-12T14:48:12.373Z,4.20
2018-06-12T14:50:39.134Z,4.00
2018-06-12T14:53:06.508Z,3.87
2018-06-12T14:55:33.986Z,4.47
2018-06-12T14:58:01.022Z,5.00
2018-06-12T15:00:28.266Z,4.53
2018-06-12T15:08:27.516Z,4.47
2018-06-12T15:10:54.360Z,3.97
2018-06-12T15:13:21.119Z,3.87
2018-06-12T15:15:47.932Z,4.23
2018-06-12T15:18:14.844Z,4.30
2018-06-12T15:20:41.780Z,3.30
2018-06-12T15:23:08.739Z,3.15
2018-06-12T15:25:35.592Z,3.43
2018-06-12T15:28:02.804Z,3.00
2018-06-12T15:30:29.621Z,3.00
2018-06-12T15:32:56.481Z,3.20
2018-06-12T15:35:23.200Z,3.07
2018-06-12T15:37:50.028Z,2.60
2018-06-12T15:40:17.508Z,2.90
2018-06-12T15:42:44.982Z,2.93
2018-06-12T15:45:11.844Z,3.13
2018-06-12T15:47:38.689Z,2.80
2018-06-12T15:50:06.223Z,3.13
2018-06-12T15:52:33.166Z,3.80
2018-06-12T15:54:59.939Z,3.47
2018-06-12T15:57:26.801Z,3.60
2018-06-12T15:59:54.513Z,3.77
2018-06-12T16:02:21.564Z,4.17
2018-06-12T16:04:48.609Z,3.80
2018-06-12T16:07:15.471Z,3.37
2018-06-12T16:09:42.264Z,3.57
2018-06-12T16:12:09.227Z,3.30
2018-06-12T16:14:36.074Z,2.93
2018-06-12T16:17:02.871Z,3.40
2018-06-12T16:19:30.840Z,2.90
2018-06-12T16:21:57.721Z,2.70
2018-06-12T16:24:24.639Z,3.10
2018-06-12T16:26:51.974Z,3.33
2018-06-12T16:29:19.066Z,2.97
2018-06-12T16:31:45.832Z,3.37
2018-06-12T16:34:12.559Z,3.40
2018-06-12T16:36:39.477Z,3.07
2018-06-12T16:39:06.489Z,3.23
2018-06-12T16:41:33.922Z,2.50
2018-06-12T16:44:01.235Z,2.60
2018-06-12T16:46:28.019Z,2.60
2018-06-12T16:48:55.037Z,2.43
2018-06-12T16:51:21.894Z,2.10
2018-06-12T16:53:49.390Z,2.07
2018-06-12T16:56:16.225Z,2.43
2018-06-12T16:58:43.072Z,2.53
2018-06-12T17:01:10.277Z,2.07
2018-06-12T17:03:37.566Z,2.37
2018-06-12T17:06:04.533Z,2.03
2018-06-12T17:08:32.064Z,1.90
2018-06-12T17:10:58.757Z,1.70
2018-06-12T17:13:26.234Z,1.80
2018-06-12T17:15:53.023Z,1.50
2018-06-12T17:18:20.337Z,1.80
2018-06-12T17:20:47.871Z,1.80
2018-06-12T17:23:14.663Z,1.40
2018-06-12T17:25:42.181Z,1.43
2018-06-12T17:28:08.925Z,1.47
2018-06-12T17:30:36.368Z,1.63
2018-06-12T17:44:06.751Z,1.23
2018-06-12T17:46:45.545Z,1.70
2018-06-12T17:49:14.988Z,1.30
2018-06-12T17:51:41.932Z,1.33
2018-06-12T17:54:08.681Z,1.60
2018-06-12T17:56:35.479Z,1.20
2018-06-12T17:59:02.315Z,1.67
2018-06-12T18:01:29.063Z,0.90
2018-06-12T18:03:55.921Z,1.17
2018-06-12T18:06:22.812Z,1.20
2018-06-12T18:08:49.666Z,1.50
2018-06-12T18:11:16.534Z,1.20
2018-06-12T18:13:43.372Z,1.10
2018-06-12T18:16:10.232Z,1.57
2018-06-12T18:18:37.166Z,1.23
2018-06-12T18:21:04.072Z,1.27
2018-06-12T18:23:30.950Z,1.53
2018-06-12T18:25:57.788Z,1.27
2018-06-12T18:28:24.657Z,1.00
2018-06-12T18:30:51.478Z,1.13
2018-06-12T18:33:18.227Z,1.20
2018-06-12T18:35:44.914Z,1.17
2018-06-12T18:38:11.680Z,1.20
2018-06-12T18:40:38.457Z,1.20
2018-06-12T18:43:05.305Z,1.03
2018-06-12T18:45:32.090Z,1.00
2018-06-12T18:47:58.861Z,1.40
2018-06-12T18:50:25.610Z,1.33
2018-06-12T18:52:52.299Z,1.87
2018-06-12T18:55:19.050Z,1.13
2018-06-12T18:57:45.963Z,1.23
2018-06-12T19:00:12.698Z,1.30
2018-06-12T19:02:39.505Z,1.17
2018-06-12T19:05:06.286Z,0.90
2018-06-12T19:07:33.120Z,1.27
2018-06-12T19:10:00.044Z,1.10
2018-06-12T19:12:26.878Z,1.50
2018-06-12T19:14:53.814Z,1.00
2018-06-12T19:17:20.715Z,1.13
2018-06-12T19:19:47.500Z,0.97
2018-06-12T19:22:14.267Z,1.20
2018-06-12T19:24:41.051Z,0.97
2018-06-12T19:27:07.892Z,1.27
2018-06-12T19:29:34.703Z,1.50
2018-06-12T19:32:01.650Z,1.20
2018-06-12T19:34:28.432Z,1.10
2018-06-12T19:36:55.216Z,1.15
2018-06-12T19:39:22.051Z,1.33
2018-06-12T19:41:48.985Z,1.27
2018-06-12T19:44:15.921Z,1.00
2018-06-12T19:46:42.755Z,1.50
2018-06-12T19:49:09.551Z,1.13
2018-06-12T19:51:36.381Z,1.10
2018-06-12T19:54:03.104Z,1.17
2018-06-12T19:56:29.925Z,1.22
2018-06-12T19:58:56.838Z,0.97
2018-06-12T20:01:23.630Z,1.10
2018-06-12T20:03:50.394Z,1.53
2018-06-12T20:06:17.173Z,0.90
2018-06-12T20:08:43.923Z,0.60
2018-06-12T20:11:10.732Z,0.90
2018-06-12T20:13:37.596Z,1.10
2018-06-12T20:16:04.390Z,1.10
2018-06-12T20:18:31.355Z,0.95
2018-06-12T20:20:58.102Z,0.90
2018-06-12T20:23:24.889Z,1.10
2018-06-12T20:25:51.688Z,1.10
2018-06-12T20:28:18.479Z,0.80
2018-06-12T20:30:48.446Z,1.00
2018-06-12T20:33:16.468Z,0.83
2018-06-12T20:35:43.626Z,0.87
2018-06-12T20:38:10.509Z,0.73
2018-06-12T20:40:37.272Z,1.10
2018-06-12T20:43:04.202Z,1.07
2018-06-12T20:45:31.136Z,0.90
2018-06-12T20:47:58.032Z,0.80
2018-06-12T20:50:25.024Z,1.17
2018-06-12T20:52:51.871Z,0.90
2018-06-12T20:55:18.767Z,0.60
2018-06-12T20:57:45.608Z,0.73
2018-06-12T21:00:12.510Z,0.90
2018-06-12T21:02:39.412Z,0.80
2018-06-12T21:05:06.147Z,0.90
2018-06-12T21:07:32.894Z,1.03
2018-06-12T21:09:59.657Z,1.23
2018-06-12T21:12:26.435Z,0.90
2018-06-12T21:14:53.187Z,0.97
2018-06-12T21:17:19.963Z,0.83
2018-06-12T21:19:46.721Z,1.33
2018-06-12T21:22:13.472Z,0.90
2018-06-12T21:24:40.261Z,1.20
2018-06-12T21:27:07.030Z,0.80
2018-06-12T21:29:33.786Z,0.70
2018-06-12T21:32:00.539Z,1.00
2018-06-12T21:34:27.273Z,0.90
2018-06-12T21:36:54.271Z,0.97
2018-06-12T21:39:21.396Z,1.07
2018-06-12T21:41:48.236Z,0.97
2018-06-12T21:44:15.052Z,0.90
2018-06-12T21:46:41.773Z,0.90
2018-06-12T21:49:08.501Z,1.03
2018-06-12T21:51:35.167Z,0.90
2018-06-12T21:54:01.952Z,1.20
2018-06-12T21:56:28.704Z,1.03
2018-06-12T21:58:55.505Z,1.40
2018-06-12T22:01:22.318Z,1.10
2018-06-12T22:03:49.140Z,1.40
2018-06-12T22:06:15.980Z,1.10
2018-06-12T22:08:42.977Z,1.10
2018-06-12T22:11:09.827Z,1.00
2018-06-12T22:13:36.578Z,0.90
2018-06-12T22:16:03.373Z,0.90
2018-06-12T22:18:30.128Z,0.83
2018-06-12T22:20:56.932Z,0.80
2018-06-12T22:23:23.720Z,1.00
2018-06-12T22:25:50.474Z,1.00
2018-06-12T22:28:17.238Z,0.93
2018-06-12T22:30:44.031Z,1.10
2018-06-12T22:33:10.812Z,1.00
2018-06-12T22:35:37.478Z,1.20
2018-06-12T22:38:04.266Z,1.00
2018-06-12T22:40:30.969Z,1.00
2018-06-12T22:42:57.742Z,0.93
2018-06-12T22:45:24.456Z,0.87
2018-06-12T22:47:51.164Z,1.30
2018-06-12T22:50:17.992Z,1.20
2018-06-12T22:52:44.778Z,1.30
2018-06-12T22:55:11.485Z,1.00
2018-06-12T22:57:38.128Z,0.83
2018-06-12T23:00:04.936Z,0.80
2018-06-12T23:02:31.781Z,1.07
2018-06-12T23:04:58.518Z,0.90
2018-06-12T23:07:25.321Z,0.93
2018-06-12T23:09:52.122Z,0.77
2018-06-12T23:12:18.839Z,0.73
2018-06-12T23:14:46.552Z,0.60
2018-06-12T23:17:13.421Z,0.97
2018-06-12T23:19:40.092Z,1.00
2018-06-12T23:22:06.860Z,1.40
2018-06-12T23:24:33.563Z,0.90
2018-06-12T23:27:00.295Z,1.10
2018-06-12T23:29:27.115Z,0.60
2018-06-12T23:31:53.885Z,0.90
2018-06-12T23:34:20.637Z,1.17
2018-06-12T23:36:47.363Z,0.80
2018-06-12T23:39:14.159Z,1.00
2018-06-12T23:41:40.886Z,0.93
2018-06-12T23:44:07.726Z,1.00
2018-06-12T23:46:34.486Z,0.80
2018-06-12T23:49:01.296Z,0.83
2018-06-12T23:51:28.070Z,0.83
2018-06-12T23:53:54.750Z,0.93
2018-06-12T23:56:21.439Z,0.73
2018-06-12T23:58:48.130Z,0.90
